PGT4RA LTFJ-ULLI
Flight info
| Callsign | PGT4RA |
|---|---|
| Flight time | N/A |
| Altitude | 36000 |
| Route | MAKOL1J/06L MAKOL N600 RORKI DCT LUGEB DCT RIVOS DCT LAPKA DCT KENIN DCT TOXAR/N0463F370 DCT VABER DCT LUNIT DCT GATVA DCT NUMSU T633 RISAT/K0859F370 T633 KOLET KOLET1B |
| Aircraft | B738/M-SDE2E3FGHIRWXY/LB1 |
Departure
| Time | 2026-04-30 19:16 |
|---|---|
| Airport | Istanbul Sabiha Gökçen International Airport (LTFJ) |
Arrival
| Time | N/A |
|---|---|
| Airport | Pulkovo Airport (ULLI) |
| Time | Latitude | Longitude | Altitude | Speed | Heading |
|---|---|---|---|---|---|
| 2026-04-30 19:15 | 41.08235 | 29.84751 | 11004 ft | 312 kts | 236° |
| 2026-04-30 19:15 | 41.05936 | 29.80250 | 10917 ft | 287 kts | 236° |
| 2026-04-30 19:15 | 41.04808 | 29.78093 | 10756 ft | 279 kts | 235° |
| 2026-04-30 19:16 | 41.03706 | 29.76008 | 10467 ft | 276 kts | 235° |
| 2026-04-30 19:16 | 41.02613 | 29.73901 | 10096 ft | 278 kts | 236° |
| 2026-04-30 19:16 | 41.00436 | 29.69700 | 9431 ft | 279 kts | 236° |
| 2026-04-30 19:17 | 40.99339 | 29.67578 | 9126 ft | 278 kts | 236° |
| 2026-04-30 19:17 | 40.97152 | 29.63357 | 8586 ft | 277 kts | 236° |
| 2026-04-30 19:17 | 40.96054 | 29.61250 | 8338 ft | 278 kts | 236° |
| 2026-04-30 19:18 | 40.94231 | 29.57744 | 7927 ft | 278 kts | 236° |
| 2026-04-30 19:18 | 40.92775 | 29.54952 | 7598 ft | 279 kts | 236° |
| 2026-04-30 19:18 | 40.91671 | 29.52838 | 7349 ft | 279 kts | 236° |
| 2026-04-30 19:19 | 40.90570 | 29.50728 | 7095 ft | 279 kts | 236° |
| 2026-04-30 19:19 | 40.89467 | 29.48615 | 6846 ft | 278 kts | 236° |
| 2026-04-30 19:19 | 40.87269 | 29.44407 | 6343 ft | 277 kts | 236° |
| 2026-04-30 19:20 | 40.86173 | 29.42317 | 6084 ft | 276 kts | 236° |
| 2026-04-30 19:20 | 40.85089 | 29.40246 | 5946 ft | 272 kts | 236° |
| 2026-04-30 19:20 | 40.82963 | 29.36182 | 5691 ft | 269 kts | 236° |
| 2026-04-30 19:21 | 40.81896 | 29.34146 | 5571 ft | 271 kts | 236° |
| 2026-04-30 19:21 | 40.79736 | 29.30015 | 5336 ft | 275 kts | 236° |
| 2026-04-30 19:22 | 40.77576 | 29.25870 | 5085 ft | 276 kts | 236° |
| 2026-04-30 19:22 | 40.74412 | 29.19784 | 4713 ft | 257 kts | 236° |
| 2026-04-30 19:23 | 40.71620 | 29.14098 | 4292 ft | 242 kts | 255° |
| 2026-04-30 19:24 | 40.72359 | 29.10047 | 4048 ft | 235 kts | 318° |
| 2026-04-30 19:24 | 40.73677 | 29.08799 | 3954 ft | 233 kts | 329° |
| 2026-04-30 19:24 | 40.76628 | 29.07536 | 3509 ft | 227 kts | 13° |
| 2026-04-30 19:25 | 40.80871 | 29.10050 | 2990 ft | 223 kts | 44° |
| 2026-04-30 19:26 | 40.82359 | 29.13579 | 2962 ft | 220 kts | 63° |
| 2026-04-30 19:26 | 40.83653 | 29.17045 | 2463 ft | 197 kts | 64° |
| 2026-04-30 19:26 | 40.84229 | 29.18625 | 2204 ft | 185 kts | 63° |
| 2026-04-30 19:27 | 40.85263 | 29.21456 | 1748 ft | 156 kts | 63° |
| 2026-04-30 19:27 | 40.86142 | 29.23860 | 1362 ft | 142 kts | 62° |
| 2026-04-30 19:28 | 40.86572 | 29.25033 | 1180 ft | 144 kts | 62° |
| 2026-04-30 19:28 | 40.87452 | 29.27433 | 797 ft | 146 kts | 62° |
| 2026-04-30 19:29 | 40.88342 | 29.29858 | 401 ft | 144 kts | 63° |
| 2026-04-30 19:29 | 40.88772 | 29.31039 | 295 ft | 136 kts | 62° |
| 2026-04-30 19:30 | 40.89768 | 29.35288 | 2060 ft | 197 kts | 95° |
| 2026-04-30 19:30 | 40.87955 | 29.37852 | 3182 ft | 219 kts | 175° |
| 2026-04-30 19:31 | 40.85284 | 29.35035 | 2932 ft | 293 kts | 244° |
| 2026-04-30 19:31 | 40.84398 | 29.32645 | 2669 ft | 281 kts | 245° |
| 2026-04-30 19:31 | 40.82823 | 29.28269 | 2281 ft | 243 kts | 245° |
| 2026-04-30 19:32 | 40.82100 | 29.26351 | 2094 ft | 225 kts | 244° |
| 2026-04-30 19:32 | 40.81434 | 29.24596 | 2003 ft | 203 kts | 245° |
| 2026-04-30 19:32 | 40.81115 | 29.22869 | 1740 ft | 188 kts | 274° |
| 2026-04-30 19:32 | 40.81404 | 29.21361 | 1753 ft | 157 kts | 308° |
| 2026-04-30 19:33 | 40.82238 | 29.20509 | 1710 ft | 153 kts | 345° |
| 2026-04-30 19:33 | 40.83269 | 29.20443 | 1642 ft | 152 kts | 17° |
| 2026-04-30 19:33 | 40.84223 | 29.20942 | 1667 ft | 149 kts | 26° |
| 2026-04-30 19:33 | 40.85122 | 29.21599 | 1679 ft | 147 kts | 39° |
| 2026-04-30 19:34 | 40.85755 | 29.22655 | 1611 ft | 148 kts | 65° |
| 2026-04-30 19:34 | 40.86120 | 29.23918 | 1438 ft | 145 kts | 66° |
| 2026-04-30 19:34 | 40.87017 | 29.26281 | 969 ft | 145 kts | 62° |
| 2026-04-30 19:35 | 40.87452 | 29.27463 | 779 ft | 142 kts | 62° |
| 2026-04-30 19:35 | 40.87886 | 29.28636 | 603 ft | 141 kts | 62° |
| 2026-04-30 19:35 | 40.88327 | 29.29827 | 407 ft | 145 kts | 62° |
| 2026-04-30 19:35 | 40.88763 | 29.31017 | 294 ft | 138 kts | 63° |
| 2026-04-30 19:36 | 40.89098 | 29.31926 | 307 ft | 80 kts | 63° |
| 2026-04-30 19:36 | 40.89274 | 29.32326 | 303 ft | 32 kts | 47° |
| 2026-04-30 19:36 | 40.89501 | 29.32455 | 306 ft | 13 kts | 261° |
| 2026-04-30 19:37 | 40.89531 | 29.32357 | 305 ft | 13 kts | 331° |
| 2026-04-30 19:37 | 40.89616 | 29.32333 | 304 ft | 12 kts | 334° |
| 2026-04-30 19:37 | 40.89693 | 29.32283 | 304 ft | 12 kts | 334° |
| 2026-04-30 19:37 | 40.89768 | 29.32236 | 307 ft | 12 kts | 334° |
| 2026-04-30 19:38 | 40.89841 | 29.32188 | 309 ft | 12 kts | 333° |
| 2026-04-30 19:38 | 40.89912 | 29.32141 | 311 ft | 11 kts | 333° |
| 2026-04-30 19:38 | 40.89981 | 29.32097 | 314 ft | 11 kts | 334° |
| 2026-04-30 19:38 | 40.90048 | 29.32055 | 318 ft | 11 kts | 340° |
| 2026-04-30 19:39 | 40.90105 | 29.32096 | 319 ft | 10 kts | 63° |
| 2026-04-30 19:39 | 40.90137 | 29.32183 | 319 ft | 12 kts | 64° |
| 2026-04-30 19:39 | 40.90187 | 29.32318 | 319 ft | 20 kts | 64° |
| 2026-04-30 19:39 | 40.90253 | 29.32501 | 319 ft | 22 kts | 64° |
| 2026-04-30 19:40 | 40.90284 | 29.32573 | 319 ft | 0 kts | 44° |
| 2026-04-30 19:40 | 40.90334 | 29.32581 | 318 ft | 12 kts | 340° |
| 2026-04-30 19:40 | 40.90413 | 29.32531 | 319 ft | 13 kts | 334° |
| 2026-04-30 19:41 | 40.90492 | 29.32479 | 318 ft | 13 kts | 333° |
| 2026-04-30 19:41 | 40.90573 | 29.32427 | 320 ft | 13 kts | 333° |
| 2026-04-30 19:41 | 40.90628 | 29.32332 | 318 ft | 14 kts | 321° |
| 2026-04-30 19:41 | 40.90711 | 29.32276 | 320 ft | 13 kts | 335° |
| 2026-04-30 19:42 | 40.90774 | 29.32319 | 320 ft | 4 kts | 75° |
| 2026-04-30 19:42 | 40.90755 | 29.32354 | 318 ft | 8 kts | 149° |
| 2026-04-30 19:42 | 40.90717 | 29.32378 | 318 ft | 0 kts | 154° |